createdAt,value
2019-02-05T00:01:50.058Z,6.37
2019-02-05T00:06:34.955Z,7.17
2019-02-05T00:11:19.834Z,6.93
2019-02-05T00:16:04.540Z,6.47
2019-02-05T00:20:49.438Z,6.27
2019-02-05T00:25:34.316Z,6.83
2019-02-05T00:30:19.078Z,4.43
2019-02-05T00:35:04.218Z,2.97
2019-02-05T00:39:50.412Z,3.67
2019-02-05T00:44:35.140Z,4.90
2019-02-05T00:49:20.344Z,5.07
2019-02-05T00:54:05.122Z,4.30
2019-02-05T00:58:49.888Z,6.13
2019-02-05T01:03:37.075Z,4.90
2019-02-05T01:08:21.949Z,3.57
2019-02-05T01:13:06.644Z,3.63
2019-02-05T01:17:51.673Z,6.80
2019-02-05T01:22:36.507Z,2.80
2019-02-05T01:27:21.265Z,3.43
2019-02-05T01:32:06.102Z,5.00
2019-02-05T01:36:51.362Z,4.27
2019-02-05T01:41:36.978Z,5.07
2019-02-05T01:46:21.751Z,4.57
2019-02-05T01:51:06.539Z,5.47
2019-02-05T01:55:51.248Z,3.47
2019-02-05T02:00:39.992Z,2.63
2019-02-05T02:05:25.127Z,3.03
2019-02-05T02:10:12.855Z,3.80
2019-02-05T02:15:04.742Z,3.13
2019-02-05T02:19:59.865Z,1.50
2019-02-05T02:24:45.787Z,2.83
2019-02-05T02:30:12.396Z,3.27
2019-02-05T02:35:27.464Z,2.50
2019-02-05T02:40:54.293Z,3.37
2019-02-05T02:51:39.443Z,2.73
2019-02-05T02:56:24.399Z,2.77
2019-02-05T03:01:09.162Z,1.63
2019-02-05T03:05:54.111Z,2.93
2019-02-05T03:10:39.029Z,1.73
2019-02-05T03:15:24.025Z,2.80
2019-02-05T03:20:09.769Z,2.57
2019-02-05T03:24:54.747Z,2.27
2019-02-05T03:29:39.592Z,4.40
2019-02-05T03:34:24.656Z,6.07
2019-02-05T03:39:09.335Z,4.67
2019-02-05T03:43:53.955Z,3.37
2019-02-05T03:48:38.921Z,5.43
2019-02-05T03:53:25.118Z,4.37
2019-02-05T03:58:34.286Z,7.30
2019-02-05T04:04:04.362Z,2.90
2019-02-05T04:09:00.527Z,5.57
2019-02-05T04:14:11.200Z,7.33
2019-02-05T04:19:38.902Z,6.97
2019-02-05T04:24:51.398Z,6.07
2019-02-05T04:30:17.448Z,5.87
2019-02-05T04:35:35.650Z,5.50
2019-02-05T04:40:29.671Z,4.57
2019-02-05T04:45:53.443Z,11.13
2019-02-05T04:50:59.744Z,13.00
2019-02-05T04:56:33.474Z,6.73
2019-02-05T05:01:50.935Z,4.27
2019-02-05T05:07:08.049Z,5.10
2019-02-05T05:11:52.612Z,5.30
2019-02-05T05:16:37.135Z,4.70
2019-02-05T05:21:21.899Z,8.37
2019-02-05T05:26:06.539Z,8.17
2019-02-05T05:30:51.563Z,10.10
2019-02-05T05:35:44.090Z,6.23
2019-02-05T05:40:22.358Z,8.07
2019-02-05T05:45:09.140Z,5.90
2019-02-05T05:49:53.828Z,5.90
2019-02-05T05:54:38.433Z,5.57
2019-02-05T05:59:23.052Z,3.80
2019-02-05T06:04:07.837Z,4.73
2019-02-05T06:08:52.330Z,7.77
2019-02-05T06:13:37.335Z,6.30
2019-02-05T06:18:21.923Z,4.97
2019-02-05T06:23:06.476Z,7.53
2019-02-05T06:27:50.971Z,7.07
2019-02-05T06:32:35.509Z,7.50
2019-02-05T06:37:20.025Z,5.93
2019-02-05T06:42:04.706Z,4.17
2019-02-05T06:46:49.335Z,3.27
2019-02-05T06:51:33.912Z,3.93
2019-02-05T06:56:18.717Z,4.60
2019-02-05T07:01:03.420Z,4.07
2019-02-05T07:05:48.172Z,5.07
2019-02-05T07:10:33.756Z,3.47
2019-02-05T07:15:18.694Z,4.33
2019-02-05T07:20:03.236Z,5.30
2019-02-05T07:24:47.958Z,3.93
2019-02-05T07:29:32.498Z,5.73
2019-02-05T07:34:17.005Z,5.23
2019-02-05T07:39:01.924Z,4.73
2019-02-05T07:43:46.585Z,2.97
2019-02-05T07:48:31.219Z,3.87
2019-02-05T07:53:15.793Z,5.57
2019-02-05T07:58:00.543Z,3.83
2019-02-05T08:02:45.091Z,3.33
2019-02-05T08:07:29.753Z,4.43
2019-02-05T08:12:14.461Z,7.53
2019-02-05T08:16:59.051Z,4.83
2019-02-05T08:21:43.709Z,5.37
2019-02-05T08:26:28.344Z,4.87
2019-02-05T08:31:12.950Z,5.27
2019-02-05T08:35:57.556Z,4.80
2019-02-05T08:40:42.307Z,5.83
2019-02-05T08:45:28.626Z,6.03
2019-02-05T08:50:16.091Z,5.67
2019-02-05T08:55:00.686Z,5.13
2019-02-05T08:59:45.410Z,6.63
2019-02-05T09:04:30.056Z,5.37
2019-02-05T09:09:14.670Z,5.37
2019-02-05T09:14:10.348Z,4.33
2019-02-05T09:18:45.654Z,3.73
2019-02-05T09:23:30.660Z,4.77
2019-02-05T09:28:15.378Z,5.73
2019-02-05T09:33:01.811Z,4.93
2019-02-05T09:37:46.503Z,5.10
2019-02-05T09:42:31.079Z,4.97
2019-02-05T09:47:15.664Z,4.50
2019-02-05T09:52:00.206Z,4.20
2019-02-05T09:56:44.760Z,5.27
2019-02-05T10:01:29.417Z,5.50
2019-02-05T10:06:14.263Z,4.97
2019-02-05T10:10:59.534Z,5.40
2019-02-05T10:15:44.434Z,8.07
2019-02-05T10:20:29.180Z,8.27
2019-02-05T10:25:14.073Z,6.37
2019-02-05T10:29:59.622Z,6.43
2019-02-05T10:34:44.286Z,12.60
2019-02-05T10:39:29.079Z,6.63
2019-02-05T10:44:13.850Z,8.67
2019-02-05T10:48:59.033Z,7.50
2019-02-05T10:53:44.021Z,7.80
2019-02-05T10:58:29.178Z,6.27
2019-02-05T11:03:14.237Z,8.30
2019-02-05T11:08:01.750Z,8.03
2019-02-05T11:12:48.350Z,8.80
2019-02-05T11:17:33.288Z,8.47
2019-02-05T11:22:18.292Z,8.50
2019-02-05T11:27:02.942Z,9.17
2019-02-05T11:31:47.818Z,9.17
2019-02-05T11:36:32.917Z,13.17
2019-02-05T11:41:18.389Z,12.00
2019-02-05T11:46:03.250Z,10.10
2019-02-05T11:50:48.191Z,9.13
2019-02-05T11:55:34.908Z,9.50
2019-02-05T12:00:32.693Z,10.40
2019-02-05T12:05:15.368Z,12.60
2019-02-05T12:10:01.660Z,10.70
2019-02-05T12:14:50.362Z,11.70
2019-02-05T12:19:34.512Z,10.80
2019-02-05T12:24:19.309Z,13.40
2019-02-05T12:29:04.305Z,10.87
2019-02-05T12:33:50.829Z,12.63
2019-02-05T12:38:37.352Z,13.47
2019-02-05T12:43:22.261Z,17.13
2019-02-05T12:48:07.218Z,17.67
2019-02-05T12:52:52.363Z,23.30
2019-02-05T12:57:37.714Z,15.43
2019-02-05T13:02:22.615Z,18.17
2019-02-05T13:07:07.451Z,19.80
2019-02-05T13:11:52.262Z,15.13
2019-02-05T13:16:37.279Z,14.70
2019-02-05T13:21:21.922Z,13.57
2019-02-05T13:26:08.362Z,13.63
2019-02-05T13:30:53.334Z,11.00
2019-02-05T13:35:38.194Z,12.33
2019-02-05T13:40:24.598Z,11.73
2019-02-05T13:45:10.180Z,12.60
2019-02-05T13:49:54.933Z,12.77
2019-02-05T13:54:39.924Z,13.60
2019-02-05T13:59:24.701Z,13.47
2019-02-05T14:04:09.487Z,13.47
2019-02-05T14:08:54.623Z,12.27
2019-02-05T14:13:44.410Z,12.90
2019-02-05T14:18:29.059Z,14.27
2019-02-05T14:23:14.050Z,12.67
2019-02-05T14:27:58.990Z,13.43
2019-02-05T14:32:43.942Z,11.97
2019-02-05T14:37:29.043Z,11.83
2019-02-05T14:42:14.410Z,14.50
2019-02-05T14:47:00.840Z,13.60
2019-02-05T14:51:46.706Z,16.13
2019-02-05T14:56:31.618Z,14.07
2019-02-05T15:01:16.370Z,17.10
2019-02-05T15:06:01.225Z,14.07
2019-02-05T15:10:46.263Z,11.40
2019-02-05T15:15:32.377Z,11.53
2019-02-05T15:20:32.052Z,15.57
2019-02-05T15:25:16.780Z,12.93
2019-02-05T15:30:01.625Z,14.23
2019-02-05T15:34:46.452Z,14.07
2019-02-05T15:39:31.287Z,13.87
2019-02-05T15:44:16.209Z,16.80
2019-02-05T15:49:01.186Z,14.37
2019-02-05T15:53:46.059Z,14.97
2019-02-05T15:58:31.059Z,14.37
2019-02-05T16:03:16.179Z,16.10
2019-02-05T16:08:01.126Z,16.33
2019-02-05T16:12:45.886Z,15.43
2019-02-05T16:17:31.389Z,16.93
2019-02-05T16:22:16.221Z,17.57
2019-02-05T16:27:05.958Z,16.70
2019-02-05T16:31:50.907Z,19.80
2019-02-05T16:36:36.776Z,13.83
2019-02-05T16:41:21.601Z,18.47
2019-02-05T16:46:06.366Z,17.97
2019-02-05T16:50:51.466Z,17.73
2019-02-05T16:55:36.256Z,19.43
2019-02-05T17:00:23.424Z,16.27
2019-02-05T17:05:08.830Z,19.83
2019-02-05T17:09:53.632Z,17.83
2019-02-05T17:14:38.655Z,18.03
2019-02-05T17:19:23.621Z,19.40
2019-02-05T17:24:08.418Z,19.97
2019-02-05T17:28:56.363Z,19.87
2019-02-05T17:33:41.324Z,21.43
2019-02-05T17:38:26.186Z,20.40
2019-02-05T17:43:11.059Z,19.70
2019-02-05T17:47:56.093Z,22.83
2019-02-05T17:52:40.968Z,20.93
2019-02-05T17:57:25.802Z,19.93
2019-02-05T18:02:11.321Z,20.57
2019-02-05T18:06:56.265Z,20.27
2019-02-05T18:11:41.007Z,20.43
2019-02-05T18:16:25.888Z,23.57
2019-02-05T18:21:10.578Z,26.50
2019-02-05T18:25:55.346Z,22.95
2019-02-05T18:30:40.434Z,23.17
2019-02-05T18:35:25.192Z,21.83
2019-02-05T18:40:11.224Z,21.33
2019-02-05T18:44:56.051Z,24.43
2019-02-05T18:49:40.867Z,22.60
2019-02-05T18:54:25.789Z,21.20
2019-02-05T18:59:10.728Z,22.60
2019-02-05T19:03:55.831Z,21.73
2019-02-05T19:08:40.725Z,23.27
2019-02-05T19:13:25.721Z,23.90
2019-02-05T19:18:11.944Z,22.50
2019-02-05T19:22:56.592Z,22.17
2019-02-05T19:27:41.320Z,25.17
2019-02-05T19:32:28.147Z,23.37
2019-02-05T19:37:12.926Z,24.70
2019-02-05T19:41:57.725Z,21.07
2019-02-05T19:46:50.751Z,22.43
2019-02-05T19:51:35.770Z,26.80
2019-02-05T19:56:20.498Z,24.10
2019-02-05T20:01:05.820Z,26.60
2019-02-05T20:05:50.440Z,25.20
2019-02-05T20:10:35.257Z,23.70
2019-02-05T20:15:20.061Z,24.77
2019-02-05T20:20:05.934Z,22.90
2019-02-05T20:24:52.114Z,27.10
2019-02-05T20:29:37.038Z,25.93
2019-02-05T20:34:23.239Z,25.00
2019-02-05T20:39:18.370Z,24.20
2019-02-05T20:44:03.194Z,27.10
2019-02-05T20:48:48.078Z,27.23
2019-02-05T20:53:32.892Z,27.67
2019-02-05T20:58:18.046Z,27.57
2019-02-05T21:03:02.851Z,26.20
2019-02-05T21:07:47.877Z,25.73
2019-02-05T21:12:33.082Z,30.47
2019-02-05T21:17:18.149Z,24.80
2019-02-05T21:22:02.984Z,24.10
2019-02-05T21:26:47.936Z,25.73
2019-02-05T21:31:32.783Z,27.43
2019-02-05T21:36:17.545Z,25.40
2019-02-05T21:41:02.337Z,21.77
2019-02-05T21:45:47.251Z,26.50
2019-02-05T21:50:32.018Z,23.93
2019-02-05T21:55:17.839Z,26.23
2019-02-05T22:00:02.557Z,27.03
2019-02-05T22:04:47.408Z,25.30
2019-02-05T22:09:32.126Z,27.97
2019-02-05T22:14:17.090Z,27.37
2019-02-05T22:19:01.967Z,29.83
2019-02-05T22:23:47.395Z,26.40
2019-02-05T22:28:32.063Z,30.47
2019-02-05T22:33:17.109Z,28.70
2019-02-05T22:38:01.921Z,31.43
2019-02-05T22:42:46.781Z,29.20
2019-02-05T22:47:34.135Z,29.50
2019-02-05T22:52:18.928Z,28.93
2019-02-05T22:57:04.821Z,27.10
2019-02-05T23:01:56.207Z,28.30
2019-02-05T23:06:47.869Z,27.57
2019-02-05T23:12:13.472Z,27.27
2019-02-05T23:16:58.768Z,27.40
2019-02-05T23:21:43.532Z,26.90
2019-02-05T23:26:28.168Z,26.17
2019-02-05T23:31:13.068Z,30.47
2019-02-05T23:35:57.696Z,26.60
2019-02-05T23:40:42.460Z,27.07
2019-02-05T23:45:27.430Z,26.50
2019-02-05T23:50:13.843Z,25.00
2019-02-05T23:54:59.114Z,23.43
2019-02-05T23:59:43.822Z,29.67
